sensor_id;sensor_type;location;lat;lon;timestamp;P1;durP1;ratioP1;P2;durP2;ratioP2
4696;SDS011;2362;50.780;0.292;2023-02-04T00:02:06;16.17;;;3.65;;
4696;SDS011;2362;50.780;0.292;2023-02-04T00:04:32;13.35;;;3.63;;
4696;SDS011;2362;50.780;0.292;2023-02-04T00:06:57;16.20;;;2.33;;
4696;SDS011;2362;50.780;0.292;2023-02-04T00:09:23;10.63;;;3.67;;
4696;SDS011;2362;50.780;0.292;2023-02-04T00:11:49;17.17;;;3.38;;
4696;SDS011;2362;50.780;0.292;2023-02-04T00:14:14;13.55;;;4.10;;
4696;SDS011;2362;50.780;0.292;2023-02-04T00:16:40;14.55;;;2.92;;
4696;SDS011;2362;50.780;0.292;2023-02-04T00:19:06;17.80;;;3.42;;
4696;SDS011;2362;50.780;0.292;2023-02-04T00:21:31;17.85;;;3.25;;
4696;SDS011;2362;50.780;0.292;2023-02-04T00:23:57;13.98;;;2.72;;
4696;SDS011;2362;50.780;0.292;2023-02-04T00:26:23;19.60;;;3.78;;
4696;SDS011;2362;50.780;0.292;2023-02-04T00:28:48;13.10;;;3.63;;
4696;SDS011;2362;50.780;0.292;2023-02-04T00:31:14;14.15;;;3.05;;
4696;SDS011;2362;50.780;0.292;2023-02-04T00:33:39;22.35;;;3.30;;
4696;SDS011;2362;50.780;0.292;2023-02-04T00:36:06;15.45;;;3.53;;
4696;SDS011;2362;50.780;0.292;2023-02-04T00:38:32;21.20;;;4.68;;
4696;SDS011;2362;50.780;0.292;2023-02-04T00:40:58;19.58;;;3.50;;
4696;SDS011;2362;50.780;0.292;2023-02-04T00:43:24;12.57;;;2.75;;
4696;SDS011;2362;50.780;0.292;2023-02-04T00:45:49;21.95;;;3.60;;
4696;SDS011;2362;50.780;0.292;2023-02-04T00:48:15;8.55;;;3.33;;
4696;SDS011;2362;50.780;0.292;2023-02-04T00:50:40;18.33;;;3.55;;
4696;SDS011;2362;50.780;0.292;2023-02-04T00:53:06;15.27;;;4.00;;
4696;SDS011;2362;50.780;0.292;2023-02-04T00:55:32;11.52;;;3.15;;
4696;SDS011;2362;50.780;0.292;2023-02-04T00:57:57;15.65;;;3.30;;
4696;SDS011;2362;50.780;0.292;2023-02-04T01:00:23;8.60;;;2.80;;
4696;SDS011;2362;50.780;0.292;2023-02-04T01:02:49;11.52;;;3.15;;
4696;SDS011;2362;50.780;0.292;2023-02-04T01:05:14;17.05;;;3.65;;
4696;SDS011;2362;50.780;0.292;2023-02-04T01:07:40;13.65;;;3.08;;
4696;SDS011;2362;50.780;0.292;2023-02-04T01:10:06;19.50;;;2.85;;
4696;SDS011;2362;50.780;0.292;2023-02-04T01:12:31;7.25;;;2.50;;
4696;SDS011;2362;50.780;0.292;2023-02-04T01:14:57;14.50;;;3.75;;
4696;SDS011;2362;50.780;0.292;2023-02-04T01:17:24;17.27;;;3.88;;
4696;SDS011;2362;50.780;0.292;2023-02-04T01:19:50;13.18;;;3.33;;
4696;SDS011;2362;50.780;0.292;2023-02-04T01:22:15;18.02;;;2.75;;
4696;SDS011;2362;50.780;0.292;2023-02-04T01:24:41;16.35;;;3.30;;
4696;SDS011;2362;50.780;0.292;2023-02-04T01:27:07;13.63;;;3.13;;
4696;SDS011;2362;50.780;0.292;2023-02-04T01:29:32;12.60;;;2.65;;
4696;SDS011;2362;50.780;0.292;2023-02-04T01:31:58;17.27;;;2.88;;
4696;SDS011;2362;50.780;0.292;2023-02-04T01:34:23;20.65;;;3.08;;
4696;SDS011;2362;50.780;0.292;2023-02-04T01:36:52;14.43;;;3.15;;
4696;SDS011;2362;50.780;0.292;2023-02-04T01:39:17;12.60;;;2.95;;
4696;SDS011;2362;50.780;0.292;2023-02-04T01:41:43;8.55;;;2.63;;
4696;SDS011;2362;50.780;0.292;2023-02-04T01:44:09;18.27;;;3.72;;
4696;SDS011;2362;50.780;0.292;2023-02-04T01:46:35;16.45;;;2.83;;
4696;SDS011;2362;50.780;0.292;2023-02-04T01:49:01;12.95;;;2.45;;
4696;SDS011;2362;50.780;0.292;2023-02-04T01:51:29;12.50;;;2.78;;
4696;SDS011;2362;50.780;0.292;2023-02-04T01:53:56;10.88;;;2.55;;
4696;SDS011;2362;50.780;0.292;2023-02-04T01:56:24;13.25;;;3.10;;
4696;SDS011;2362;50.780;0.292;2023-02-04T01:58:52;10.27;;;3.13;;
4696;SDS011;2362;50.780;0.292;2023-02-04T02:04:06;13.50;;;2.50;;
4696;SDS011;2362;50.780;0.292;2023-02-04T02:06:34;15.88;;;3.15;;
4696;SDS011;2362;50.780;0.292;2023-02-04T02:09:02;13.25;;;2.60;;
4696;SDS011;2362;50.780;0.292;2023-02-04T02:11:28;14.95;;;2.60;;
4696;SDS011;2362;50.780;0.292;2023-02-04T02:13:54;10.55;;;2.95;;
4696;SDS011;2362;50.780;0.292;2023-02-04T02:16:20;12.63;;;2.35;;
4696;SDS011;2362;50.780;0.292;2023-02-04T02:18:46;13.93;;;2.45;;
4696;SDS011;2362;50.780;0.292;2023-02-04T02:21:12;8.38;;;2.40;;
4696;SDS011;2362;50.780;0.292;2023-02-04T02:23:53;11.40;;;2.55;;
4696;SDS011;2362;50.780;0.292;2023-02-04T02:26:21;11.65;;;2.17;;
4696;SDS011;2362;50.780;0.292;2023-02-04T02:28:48;13.73;;;3.95;;
4696;SDS011;2362;50.780;0.292;2023-02-04T02:31:14;10.82;;;2.42;;
4696;SDS011;2362;50.780;0.292;2023-02-04T02:33:42;16.25;;;3.00;;
4696;SDS011;2362;50.780;0.292;2023-02-04T02:36:08;7.30;;;2.40;;
4696;SDS011;2362;50.780;0.292;2023-02-04T02:38:34;7.25;;;2.65;;
4696;SDS011;2362;50.780;0.292;2023-02-04T02:41:00;12.88;;;3.63;;
4696;SDS011;2362;50.780;0.292;2023-02-04T02:43:27;7.45;;;2.17;;
4696;SDS011;2362;50.780;0.292;2023-02-04T02:45:53;9.95;;;2.33;;
4696;SDS011;2362;50.780;0.292;2023-02-04T02:48:22;12.68;;;3.03;;
4696;SDS011;2362;50.780;0.292;2023-02-04T02:50:47;14.48;;;2.20;;
4696;SDS011;2362;50.780;0.292;2023-02-04T02:53:14;15.55;;;2.65;;
4696;SDS011;2362;50.780;0.292;2023-02-04T02:55:41;10.68;;;2.83;;
4696;SDS011;2362;50.780;0.292;2023-02-04T02:58:13;17.52;;;2.00;;
4696;SDS011;2362;50.780;0.292;2023-02-04T03:00:51;10.38;;;2.75;;
4696;SDS011;2362;50.780;0.292;2023-02-04T03:03:22;11.88;;;3.28;;
4696;SDS011;2362;50.780;0.292;2023-02-04T03:06:17;12.55;;;2.80;;
4696;SDS011;2362;50.780;0.292;2023-02-04T03:08:47;15.32;;;2.20;;
4696;SDS011;2362;50.780;0.292;2023-02-04T03:11:40;12.05;;;3.22;;
4696;SDS011;2362;50.780;0.292;2023-02-04T03:14:06;14.70;;;2.90;;
4696;SDS011;2362;50.780;0.292;2023-02-04T03:16:32;12.38;;;2.00;;
4696;SDS011;2362;50.780;0.292;2023-02-04T03:19:01;9.30;;;2.47;;
4696;SDS011;2362;50.780;0.292;2023-02-04T03:21:28;9.65;;;2.20;;
4696;SDS011;2362;50.780;0.292;2023-02-04T03:23:54;11.30;;;2.10;;
4696;SDS011;2362;50.780;0.292;2023-02-04T03:26:21;8.65;;;2.40;;
4696;SDS011;2362;50.780;0.292;2023-02-04T03:28:48;10.90;;;2.58;;
4696;SDS011;2362;50.780;0.292;2023-02-04T03:31:14;13.80;;;2.28;;
4696;SDS011;2362;50.780;0.292;2023-02-04T03:33:39;7.72;;;2.33;;
4696;SDS011;2362;50.780;0.292;2023-02-04T03:36:06;5.50;;;2.13;;
4696;SDS011;2362;50.780;0.292;2023-02-04T03:38:33;8.25;;;2.30;;
4696;SDS011;2362;50.780;0.292;2023-02-04T03:40:59;13.95;;;3.05;;
4696;SDS011;2362;50.780;0.292;2023-02-04T03:43:27;8.18;;;2.28;;
4696;SDS011;2362;50.780;0.292;2023-02-04T03:45:53;11.98;;;2.80;;
4696;SDS011;2362;50.780;0.292;2023-02-04T03:48:18;15.18;;;2.75;;
4696;SDS011;2362;50.780;0.292;2023-02-04T03:50:44;12.85;;;3.20;;
4696;SDS011;2362;50.780;0.292;2023-02-04T03:53:10;8.70;;;2.67;;
4696;SDS011;2362;50.780;0.292;2023-02-04T03:55:36;14.32;;;3.17;;
4696;SDS011;2362;50.780;0.292;2023-02-04T03:58:02;17.05;;;2.92;;
4696;SDS011;2362;50.780;0.292;2023-02-04T04:00:28;13.52;;;3.15;;
4696;SDS011;2362;50.780;0.292;2023-02-04T04:02:54;14.27;;;3.28;;
4696;SDS011;2362;50.780;0.292;2023-02-04T04:05:21;17.67;;;4.13;;
4696;SDS011;2362;50.780;0.292;2023-02-04T04:07:47;15.73;;;3.22;;
4696;SDS011;2362;50.780;0.292;2023-02-04T04:10:12;10.05;;;2.78;;
4696;SDS011;2362;50.780;0.292;2023-02-04T04:12:38;12.20;;;3.30;;
4696;SDS011;2362;50.780;0.292;2023-02-04T04:15:29;14.75;;;3.28;;
4696;SDS011;2362;50.780;0.292;2023-02-04T04:17:55;10.98;;;3.42;;
4696;SDS011;2362;50.780;0.292;2023-02-04T04:20:21;16.63;;;3.70;;
4696;SDS011;2362;50.780;0.292;2023-02-04T04:22:49;20.73;;;3.75;;
4696;SDS011;2362;50.780;0.292;2023-02-04T04:25:16;13.40;;;3.63;;
4696;SDS011;2362;50.780;0.292;2023-02-04T04:27:42;15.40;;;3.40;;
4696;SDS011;2362;50.780;0.292;2023-02-04T04:30:07;8.25;;;3.45;;
4696;SDS011;2362;50.780;0.292;2023-02-04T04:32:34;11.38;;;3.95;;
4696;SDS011;2362;50.780;0.292;2023-02-04T04:35:00;15.10;;;3.63;;
4696;SDS011;2362;50.780;0.292;2023-02-04T04:37:26;10.98;;;3.72;;
4696;SDS011;2362;50.780;0.292;2023-02-04T04:39:51;6.60;;;3.17;;
4696;SDS011;2362;50.780;0.292;2023-02-04T04:42:17;8.88;;;3.10;;
4696;SDS011;2362;50.780;0.292;2023-02-04T04:44:43;6.00;;;3.15;;
4696;SDS011;2362;50.780;0.292;2023-02-04T04:47:08;9.68;;;3.08;;
4696;SDS011;2362;50.780;0.292;2023-02-04T04:49:34;11.55;;;3.17;;
4696;SDS011;2362;50.780;0.292;2023-02-04T04:52:00;18.42;;;3.53;;
4696;SDS011;2362;50.780;0.292;2023-02-04T04:54:25;10.80;;;3.65;;
4696;SDS011;2362;50.780;0.292;2023-02-04T04:56:51;14.30;;;3.67;;
4696;SDS011;2362;50.780;0.292;2023-02-04T04:59:16;10.95;;;3.13;;
4696;SDS011;2362;50.780;0.292;2023-02-04T05:01:42;8.93;;;3.95;;
4696;SDS011;2362;50.780;0.292;2023-02-04T05:04:08;12.65;;;3.75;;
4696;SDS011;2362;50.780;0.292;2023-02-04T05:06:33;9.13;;;3.20;;
4696;SDS011;2362;50.780;0.292;2023-02-04T05:08:59;8.57;;;3.55;;
4696;SDS011;2362;50.780;0.292;2023-02-04T05:11:25;12.75;;;3.80;;
4696;SDS011;2362;50.780;0.292;2023-02-04T05:13:50;9.32;;;3.78;;
4696;SDS011;2362;50.780;0.292;2023-02-04T05:16:16;10.05;;;4.00;;
4696;SDS011;2362;50.780;0.292;2023-02-04T05:18:42;11.93;;;3.22;;
4696;SDS011;2362;50.780;0.292;2023-02-04T05:21:08;13.82;;;3.60;;
4696;SDS011;2362;50.780;0.292;2023-02-04T05:23:34;7.78;;;3.88;;
4696;SDS011;2362;50.780;0.292;2023-02-04T05:25:59;9.48;;;3.45;;
4696;SDS011;2362;50.780;0.292;2023-02-04T05:28:25;9.68;;;3.78;;
4696;SDS011;2362;50.780;0.292;2023-02-04T05:30:51;9.13;;;3.80;;
4696;SDS011;2362;50.780;0.292;2023-02-04T05:33:16;16.08;;;4.13;;
4696;SDS011;2362;50.780;0.292;2023-02-04T05:35:42;11.73;;;3.83;;
4696;SDS011;2362;50.780;0.292;2023-02-04T05:38:08;8.82;;;3.65;;
4696;SDS011;2362;50.780;0.292;2023-02-04T05:40:33;13.20;;;3.92;;
4696;SDS011;2362;50.780;0.292;2023-02-04T05:42:59;12.68;;;4.20;;
4696;SDS011;2362;50.780;0.292;2023-02-04T05:45:25;13.45;;;3.03;;
4696;SDS011;2362;50.780;0.292;2023-02-04T05:47:51;9.45;;;4.13;;
4696;SDS011;2362;50.780;0.292;2023-02-04T05:50:16;8.75;;;3.90;;
4696;SDS011;2362;50.780;0.292;2023-02-04T05:52:42;10.95;;;4.05;;
4696;SDS011;2362;50.780;0.292;2023-02-04T05:55:09;11.18;;;3.80;;
4696;SDS011;2362;50.780;0.292;2023-02-04T05:57:36;11.77;;;3.95;;
4696;SDS011;2362;50.780;0.292;2023-02-04T06:00:02;13.40;;;4.45;;
4696;SDS011;2362;50.780;0.292;2023-02-04T06:02:28;7.03;;;4.43;;
4696;SDS011;2362;50.780;0.292;2023-02-04T06:04:54;9.18;;;4.03;;
4696;SDS011;2362;50.780;0.292;2023-02-04T06:07:20;11.10;;;3.90;;
4696;SDS011;2362;50.780;0.292;2023-02-04T06:09:45;5.55;;;3.42;;
4696;SDS011;2362;50.780;0.292;2023-02-04T06:12:35;14.40;;;4.30;;
4696;SDS011;2362;50.780;0.292;2023-02-04T06:15:27;9.50;;;4.25;;
4696;SDS011;2362;50.780;0.292;2023-02-04T06:17:52;12.73;;;4.28;;
4696;SDS011;2362;50.780;0.292;2023-02-04T06:20:18;6.28;;;3.80;;
4696;SDS011;2362;50.780;0.292;2023-02-04T06:22:44;7.85;;;4.53;;
4696;SDS011;2362;50.780;0.292;2023-02-04T06:25:11;14.60;;;4.45;;
4696;SDS011;2362;50.780;0.292;2023-02-04T06:27:37;8.95;;;4.38;;
4696;SDS011;2362;50.780;0.292;2023-02-04T06:30:03;13.25;;;4.00;;
4696;SDS011;2362;50.780;0.292;2023-02-04T06:32:28;10.88;;;4.15;;
4696;SDS011;2362;50.780;0.292;2023-02-04T06:34:54;10.68;;;4.55;;
4696;SDS011;2362;50.780;0.292;2023-02-04T06:37:20;9.55;;;4.97;;
4696;SDS011;2362;50.780;0.292;2023-02-04T06:39:45;9.98;;;4.80;;
4696;SDS011;2362;50.780;0.292;2023-02-04T06:42:11;7.95;;;4.45;;
4696;SDS011;2362;50.780;0.292;2023-02-04T06:44:37;5.90;;;3.95;;
4696;SDS011;2362;50.780;0.292;2023-02-04T06:47:02;9.07;;;4.97;;
4696;SDS011;2362;50.780;0.292;2023-02-04T06:49:28;12.10;;;4.63;;
4696;SDS011;2362;50.780;0.292;2023-02-04T06:51:53;8.68;;;4.43;;
4696;SDS011;2362;50.780;0.292;2023-02-04T06:54:19;8.73;;;4.80;;
4696;SDS011;2362;50.780;0.292;2023-02-04T06:56:45;9.98;;;4.82;;
4696;SDS011;2362;50.780;0.292;2023-02-04T06:59:10;8.63;;;4.28;;
4696;SDS011;2362;50.780;0.292;2023-02-04T07:01:36;8.15;;;4.90;;
4696;SDS011;2362;50.780;0.292;2023-02-04T07:04:02;11.20;;;4.20;;
4696;SDS011;2362;50.780;0.292;2023-02-04T07:06:27;10.60;;;4.82;;
4696;SDS011;2362;50.780;0.292;2023-02-04T07:08:53;6.43;;;4.63;;
4696;SDS011;2362;50.780;0.292;2023-02-04T07:11:19;6.72;;;4.35;;
4696;SDS011;2362;50.780;0.292;2023-02-04T07:13:45;8.95;;;4.45;;
4696;SDS011;2362;50.780;0.292;2023-02-04T07:16:10;9.50;;;4.40;;
4696;SDS011;2362;50.780;0.292;2023-02-04T07:18:36;8.10;;;4.20;;
4696;SDS011;2362;50.780;0.292;2023-02-04T07:21:02;11.55;;;4.53;;
4696;SDS011;2362;50.780;0.292;2023-02-04T07:23:28;12.43;;;3.67;;
4696;SDS011;2362;50.780;0.292;2023-02-04T07:25:53;10.15;;;4.43;;
4696;SDS011;2362;50.780;0.292;2023-02-04T07:28:23;9.43;;;3.92;;
4696;SDS011;2362;50.780;0.292;2023-02-04T07:30:49;4.85;;;3.60;;
4696;SDS011;2362;50.780;0.292;2023-02-04T07:33:14;8.50;;;3.30;;
4696;SDS011;2362;50.780;0.292;2023-02-04T07:35:41;10.27;;;4.00;;
4696;SDS011;2362;50.780;0.292;2023-02-04T07:38:08;5.90;;;3.30;;
4696;SDS011;2362;50.780;0.292;2023-02-04T07:40:34;9.93;;;3.40;;
4696;SDS011;2362;50.780;0.292;2023-02-04T07:42:59;11.25;;;4.22;;
4696;SDS011;2362;50.780;0.292;2023-02-04T07:45:25;8.20;;;3.72;;
4696;SDS011;2362;50.780;0.292;2023-02-04T07:47:51;7.57;;;3.53;;
4696;SDS011;2362;50.780;0.292;2023-02-04T07:50:16;7.40;;;3.15;;
4696;SDS011;2362;50.780;0.292;2023-02-04T07:52:42;4.32;;;2.83;;
4696;SDS011;2362;50.780;0.292;2023-02-04T07:55:08;9.93;;;4.95;;
4696;SDS011;2362;50.780;0.292;2023-02-04T07:57:34;7.25;;;2.95;;
4696;SDS011;2362;50.780;0.292;2023-02-04T07:59:59;7.85;;;2.97;;
4696;SDS011;2362;50.780;0.292;2023-02-04T08:02:25;6.13;;;3.08;;
4696;SDS011;2362;50.780;0.292;2023-02-04T08:04:51;8.55;;;2.42;;
4696;SDS011;2362;50.780;0.292;2023-02-04T08:07:17;3.92;;;1.80;;
4696;SDS011;2362;50.780;0.292;2023-02-04T08:09:43;3.63;;;2.33;;
4696;SDS011;2362;50.780;0.292;2023-02-04T08:12:09;5.25;;;1.77;;
4696;SDS011;2362;50.780;0.292;2023-02-04T08:14:34;10.45;;;2.38;;
4696;SDS011;2362;50.780;0.292;2023-02-04T08:17:01;4.28;;;2.33;;
4696;SDS011;2362;50.780;0.292;2023-02-04T08:19:27;2.90;;;1.67;;
4696;SDS011;2362;50.780;0.292;2023-02-04T08:21:52;8.77;;;2.30;;
4696;SDS011;2362;50.780;0.292;2023-02-04T08:24:18;4.93;;;1.77;;
4696;SDS011;2362;50.780;0.292;2023-02-04T08:26:44;6.82;;;2.45;;
4696;SDS011;2362;50.780;0.292;2023-02-04T08:29:09;4.63;;;2.25;;
4696;SDS011;2362;50.780;0.292;2023-02-04T08:31:35;12.45;;;2.00;;
4696;SDS011;2362;50.780;0.292;2023-02-04T08:34:03;8.50;;;2.58;;
4696;SDS011;2362;50.780;0.292;2023-02-04T08:36:29;8.98;;;2.63;;
4696;SDS011;2362;50.780;0.292;2023-02-04T08:38:55;3.92;;;2.40;;
4696;SDS011;2362;50.780;0.292;2023-02-04T08:41:21;8.55;;;2.38;;
4696;SDS011;2362;50.780;0.292;2023-02-04T08:43:47;7.00;;;2.35;;
4696;SDS011;2362;50.780;0.292;2023-02-04T08:46:12;4.10;;;1.98;;
4696;SDS011;2362;50.780;0.292;2023-02-04T08:48:41;3.95;;;1.88;;
4696;SDS011;2362;50.780;0.292;2023-02-04T08:51:07;3.10;;;1.48;;
4696;SDS011;2362;50.780;0.292;2023-02-04T08:53:32;6.30;;;1.65;;
4696;SDS011;2362;50.780;0.292;2023-02-04T08:55:58;3.28;;;1.40;;
4696;SDS011;2362;50.780;0.292;2023-02-04T08:58:24;5.80;;;1.90;;
4696;SDS011;2362;50.780;0.292;2023-02-04T09:00:49;7.18;;;1.40;;
4696;SDS011;2362;50.780;0.292;2023-02-04T09:03:15;6.57;;;1.48;;
4696;SDS011;2362;50.780;0.292;2023-02-04T09:05:40;8.10;;;1.42;;
4696;SDS011;2362;50.780;0.292;2023-02-04T09:08:06;5.88;;;1.85;;
4696;SDS011;2362;50.780;0.292;2023-02-04T09:10:32;2.38;;;1.48;;
4696;SDS011;2362;50.780;0.292;2023-02-04T09:12:57;4.40;;;1.10;;
4696;SDS011;2362;50.780;0.292;2023-02-04T09:15:23;11.18;;;1.40;;
4696;SDS011;2362;50.780;0.292;2023-02-04T09:17:49;9.40;;;1.45;;
4696;SDS011;2362;50.780;0.292;2023-02-04T09:20:18;3.22;;;1.38;;
4696;SDS011;2362;50.780;0.292;2023-02-04T09:22:44;5.20;;;1.23;;
4696;SDS011;2362;50.780;0.292;2023-02-04T09:25:12;4.80;;;1.92;;
4696;SDS011;2362;50.780;0.292;2023-02-04T09:27:37;5.30;;;1.30;;
4696;SDS011;2362;50.780;0.292;2023-02-04T09:30:03;6.70;;;1.40;;
4696;SDS011;2362;50.780;0.292;2023-02-04T09:32:29;8.45;;;1.77;;
4696;SDS011;2362;50.780;0.292;2023-02-04T09:34:55;3.50;;;1.88;;
4696;SDS011;2362;50.780;0.292;2023-02-04T09:37:20;9.10;;;1.63;;
4696;SDS011;2362;50.780;0.292;2023-02-04T09:39:48;2.75;;;1.17;;
4696;SDS011;2362;50.780;0.292;2023-02-04T09:42:14;7.10;;;1.70;;
4696;SDS011;2362;50.780;0.292;2023-02-04T09:44:40;5.97;;;2.10;;
4696;SDS011;2362;50.780;0.292;2023-02-04T09:47:08;10.13;;;1.65;;
4696;SDS011;2362;50.780;0.292;2023-02-04T09:49:35;5.97;;;1.95;;
4696;SDS011;2362;50.780;0.292;2023-02-04T09:52:01;5.13;;;1.77;;
4696;SDS011;2362;50.780;0.292;2023-02-04T09:54:27;6.18;;;2.08;;
4696;SDS011;2362;50.780;0.292;2023-02-04T09:56:52;10.30;;;1.88;;
4696;SDS011;2362;50.780;0.292;2023-02-04T09:59:19;8.60;;;1.95;;
4696;SDS011;2362;50.780;0.292;2023-02-04T10:01:48;7.07;;;1.88;;
4696;SDS011;2362;50.780;0.292;2023-02-04T10:04:19;6.82;;;2.05;;
4696;SDS011;2362;50.780;0.292;2023-02-04T10:06:46;6.18;;;1.58;;
4696;SDS011;2362;50.780;0.292;2023-02-04T10:09:13;4.30;;;1.60;;
4696;SDS011;2362;50.780;0.292;2023-02-04T10:11:41;5.43;;;1.33;;
4696;SDS011;2362;50.780;0.292;2023-02-04T10:14:13;8.10;;;1.65;;
4696;SDS011;2362;50.780;0.292;2023-02-04T10:16:42;4.43;;;1.60;;
4696;SDS011;2362;50.780;0.292;2023-02-04T10:19:14;6.53;;;1.70;;
4696;SDS011;2362;50.780;0.292;2023-02-04T10:21:40;5.18;;;1.30;;
4696;SDS011;2362;50.780;0.292;2023-02-04T10:24:10;4.90;;;1.63;;
4696;SDS011;2362;50.780;0.292;2023-02-04T10:26:42;12.98;;;1.40;;
4696;SDS011;2362;50.780;0.292;2023-02-04T10:29:26;10.43;;;1.65;;
4696;SDS011;2362;50.780;0.292;2023-02-04T10:31:52;9.45;;;1.83;;
4696;SDS011;2362;50.780;0.292;2023-02-04T10:34:19;7.90;;;1.08;;
4696;SDS011;2362;50.780;0.292;2023-02-04T10:36:56;2.28;;;1.10;;
4696;SDS011;2362;50.780;0.292;2023-02-04T10:39:24;4.68;;;1.50;;
4696;SDS011;2362;50.780;0.292;2023-02-04T10:41:52;5.97;;;1.50;;
4696;SDS011;2362;50.780;0.292;2023-02-04T10:44:19;10.63;;;1.67;;
4696;SDS011;2362;50.780;0.292;2023-02-04T10:46:57;19.05;;;3.55;;
4696;SDS011;2362;50.780;0.292;2023-02-04T10:49:24;13.05;;;2.13;;
4696;SDS011;2362;50.780;0.292;2023-02-04T10:51:50;4.50;;;1.00;;
4696;SDS011;2362;50.780;0.292;2023-02-04T10:54:18;2.95;;;0.90;;
4696;SDS011;2362;50.780;0.292;2023-02-04T10:59:38;6.13;;;1.33;;
4696;SDS011;2362;50.780;0.292;2023-02-04T11:02:17;7.60;;;1.58;;
4696;SDS011;2362;50.780;0.292;2023-02-04T11:05:07;3.13;;;0.90;;
4696;SDS011;2362;50.780;0.292;2023-02-04T11:07:43;5.97;;;2.10;;
4696;SDS011;2362;50.780;0.292;2023-02-04T11:10:19;3.47;;;1.00;;
4696;SDS011;2362;50.780;0.292;2023-02-04T11:20:44;4.22;;;1.00;;
4696;SDS011;2362;50.780;0.292;2023-02-04T11:26:10;3.03;;;0.85;;
4696;SDS011;2362;50.780;0.292;2023-02-04T11:31:58;4.85;;;1.15;;
4696;SDS011;2362;50.780;0.292;2023-02-04T11:42:16;10.75;;;1.63;;
4696;SDS011;2362;50.780;0.292;2023-02-04T11:44:52;5.90;;;1.40;;
4696;SDS011;2362;50.780;0.292;2023-02-04T11:47:27;4.95;;;1.92;;
4696;SDS011;2362;50.780;0.292;2023-02-04T11:50:00;8.45;;;1.73;;
4696;SDS011;2362;50.780;0.292;2023-02-04T11:52:45;7.07;;;1.80;;
4696;SDS011;2362;50.780;0.292;2023-02-04T11:55:12;4.15;;;1.05;;
4696;SDS011;2362;50.780;0.292;2023-02-04T11:57:42;3.60;;;1.25;;
4696;SDS011;2362;50.780;0.292;2023-02-04T12:00:18;8.13;;;0.90;;
4696;SDS011;2362;50.780;0.292;2023-02-04T12:05:34;4.57;;;1.83;;
4696;SDS011;2362;50.780;0.292;2023-02-04T12:13:44;7.18;;;2.22;;
4696;SDS011;2362;50.780;0.292;2023-02-04T12:16:14;11.90;;;2.60;;
4696;SDS011;2362;50.780;0.292;2023-02-04T12:18:40;8.88;;;1.85;;
4696;SDS011;2362;50.780;0.292;2023-02-04T12:21:06;10.75;;;2.53;;
4696;SDS011;2362;50.780;0.292;2023-02-04T12:23:32;13.75;;;2.35;;
4696;SDS011;2362;50.780;0.292;2023-02-04T12:25:57;12.20;;;2.00;;
4696;SDS011;2362;50.780;0.292;2023-02-04T12:28:23;6.68;;;1.27;;
4696;SDS011;2362;50.780;0.292;2023-02-04T12:30:49;10.60;;;2.08;;
4696;SDS011;2362;50.780;0.292;2023-02-04T12:33:15;7.07;;;1.40;;
4696;SDS011;2362;50.780;0.292;2023-02-04T12:35:41;4.63;;;1.63;;
4696;SDS011;2362;50.780;0.292;2023-02-04T12:38:07;7.25;;;1.80;;
4696;SDS011;2362;50.780;0.292;2023-02-04T12:40:34;6.43;;;2.13;;
4696;SDS011;2362;50.780;0.292;2023-02-04T12:43:00;10.80;;;1.92;;
4696;SDS011;2362;50.780;0.292;2023-02-04T12:45:26;7.70;;;2.03;;
4696;SDS011;2362;50.780;0.292;2023-02-04T12:47:51;7.95;;;2.80;;
4696;SDS011;2362;50.780;0.292;2023-02-04T12:50:17;12.63;;;2.95;;
4696;SDS011;2362;50.780;0.292;2023-02-04T12:52:50;9.55;;;2.58;;
4696;SDS011;2362;50.780;0.292;2023-02-04T12:55:17;6.32;;;1.77;;
4696;SDS011;2362;50.780;0.292;2023-02-04T12:57:44;7.35;;;1.67;;
4696;SDS011;2362;50.780;0.292;2023-02-04T13:00:10;21.00;;;7.25;;
4696;SDS011;2362;50.780;0.292;2023-02-04T13:02:38;23.05;;;4.93;;
4696;SDS011;2362;50.780;0.292;2023-02-04T13:05:04;10.25;;;3.05;;
4696;SDS011;2362;50.780;0.292;2023-02-04T13:07:31;4.97;;;2.42;;
4696;SDS011;2362;50.780;0.292;2023-02-04T13:09:57;8.00;;;1.10;;
4696;SDS011;2362;50.780;0.292;2023-02-04T13:12:23;7.50;;;1.10;;
4696;SDS011;2362;50.780;0.292;2023-02-04T13:14:49;3.80;;;1.35;;
4696;SDS011;2362;50.780;0.292;2023-02-04T13:17:15;5.97;;;2.55;;
4696;SDS011;2362;50.780;0.292;2023-02-04T13:19:41;16.92;;;7.75;;
4696;SDS011;2362;50.780;0.292;2023-02-04T13:22:07;23.80;;;6.00;;
4696;SDS011;2362;50.780;0.292;2023-02-04T13:24:32;26.17;;;7.88;;
4696;SDS011;2362;50.780;0.292;2023-02-04T13:26:58;15.73;;;6.40;;
4696;SDS011;2362;50.780;0.292;2023-02-04T13:29:24;16.83;;;4.43;;
4696;SDS011;2362;50.780;0.292;2023-02-04T13:31:50;12.88;;;4.78;;
4696;SDS011;2362;50.780;0.292;2023-02-04T13:34:16;26.00;;;6.22;;
4696;SDS011;2362;50.780;0.292;2023-02-04T13:36:41;11.45;;;4.63;;
4696;SDS011;2362;50.780;0.292;2023-02-04T13:39:08;30.38;;;11.15;;
4696;SDS011;2362;50.780;0.292;2023-02-04T13:41:34;33.47;;;11.27;;
4696;SDS011;2362;50.780;0.292;2023-02-04T13:44:00;16.25;;;5.93;;
4696;SDS011;2362;50.780;0.292;2023-02-04T13:46:26;10.63;;;4.35;;
4696;SDS011;2362;50.780;0.292;2023-02-04T13:48:52;21.17;;;5.45;;
4696;SDS011;2362;50.780;0.292;2023-02-04T13:51:17;17.33;;;6.10;;
4696;SDS011;2362;50.780;0.292;2023-02-04T13:53:43;14.27;;;3.92;;
4696;SDS011;2362;50.780;0.292;2023-02-04T13:56:09;11.98;;;3.53;;
4696;SDS011;2362;50.780;0.292;2023-02-04T13:58:34;12.82;;;4.10;;
4696;SDS011;2362;50.780;0.292;2023-02-04T14:01:00;14.30;;;5.20;;
4696;SDS011;2362;50.780;0.292;2023-02-04T14:03:51;21.45;;;7.50;;
4696;SDS011;2362;50.780;0.292;2023-02-04T14:06:17;16.73;;;5.00;;
4696;SDS011;2362;50.780;0.292;2023-02-04T14:08:46;13.57;;;4.63;;
4696;SDS011;2362;50.780;0.292;2023-02-04T14:11:12;14.50;;;3.72;;
4696;SDS011;2362;50.780;0.292;2023-02-04T14:13:37;18.05;;;3.65;;
4696;SDS011;2362;50.780;0.292;2023-02-04T14:16:03;22.05;;;3.45;;
4696;SDS011;2362;50.780;0.292;2023-02-04T14:18:30;16.35;;;3.40;;
4696;SDS011;2362;50.780;0.292;2023-02-04T14:20:55;5.85;;;2.13;;
4696;SDS011;2362;50.780;0.292;2023-02-04T14:23:21;7.05;;;2.25;;
4696;SDS011;2362;50.780;0.292;2023-02-04T14:25:47;10.95;;;2.28;;
4696;SDS011;2362;50.780;0.292;2023-02-04T14:28:13;12.90;;;3.30;;
4696;SDS011;2362;50.780;0.292;2023-02-04T14:30:39;9.73;;;2.45;;
4696;SDS011;2362;50.780;0.292;2023-02-04T14:33:04;9.30;;;2.08;;
4696;SDS011;2362;50.780;0.292;2023-02-04T14:35:33;13.27;;;2.60;;
4696;SDS011;2362;50.780;0.292;2023-02-04T14:37:58;8.63;;;2.15;;
4696;SDS011;2362;50.780;0.292;2023-02-04T14:40:24;11.68;;;2.28;;
4696;SDS011;2362;50.780;0.292;2023-02-04T14:42:50;7.30;;;1.83;;
4696;SDS011;2362;50.780;0.292;2023-02-04T14:45:15;11.50;;;1.90;;
4696;SDS011;2362;50.780;0.292;2023-02-04T14:47:41;6.15;;;1.98;;
4696;SDS011;2362;50.780;0.292;2023-02-04T14:50:09;10.75;;;1.77;;
4696;SDS011;2362;50.780;0.292;2023-02-04T14:52:37;10.00;;;2.53;;
4696;SDS011;2362;50.780;0.292;2023-02-04T14:55:03;7.50;;;2.33;;
4696;SDS011;2362;50.780;0.292;2023-02-04T14:57:29;13.80;;;3.00;;
4696;SDS011;2362;50.780;0.292;2023-02-04T14:59:55;12.75;;;2.50;;
4696;SDS011;2362;50.780;0.292;2023-02-04T15:02:20;8.55;;;2.58;;
4696;SDS011;2362;50.780;0.292;2023-02-04T15:04:46;10.23;;;2.35;;
4696;SDS011;2362;50.780;0.292;2023-02-04T15:07:13;14.02;;;2.40;;
4696;SDS011;2362;50.780;0.292;2023-02-04T15:09:39;6.85;;;2.63;;
4696;SDS011;2362;50.780;0.292;2023-02-04T15:12:06;9.15;;;2.75;;
4696;SDS011;2362;50.780;0.292;2023-02-04T15:14:32;14.48;;;3.83;;
4696;SDS011;2362;50.780;0.292;2023-02-04T15:16:57;10.68;;;3.00;;
4696;SDS011;2362;50.780;0.292;2023-02-04T15:19:23;10.43;;;2.60;;
4696;SDS011;2362;50.780;0.292;2023-02-04T15:21:49;5.93;;;2.22;;
4696;SDS011;2362;50.780;0.292;2023-02-04T15:24:15;5.10;;;2.13;;
4696;SDS011;2362;50.780;0.292;2023-02-04T15:26:41;11.57;;;3.15;;
4696;SDS011;2362;50.780;0.292;2023-02-04T15:29:07;14.80;;;2.63;;
4696;SDS011;2362;50.780;0.292;2023-02-04T15:31:33;13.40;;;3.90;;
4696;SDS011;2362;50.780;0.292;2023-02-04T15:33:59;8.20;;;2.95;;
4696;SDS011;2362;50.780;0.292;2023-02-04T15:36:25;13.23;;;3.28;;
4696;SDS011;2362;50.780;0.292;2023-02-04T15:38:51;15.25;;;3.50;;
4696;SDS011;2362;50.780;0.292;2023-02-04T15:41:16;8.88;;;3.47;;
4696;SDS011;2362;50.780;0.292;2023-02-04T15:43:42;10.20;;;3.33;;